createdAt,value
2018-08-19T19:21:11.546Z,24.04
2018-08-19T19:22:11.532Z,23.97
2018-08-19T19:23:11.544Z,23.94
2018-08-19T19:24:11.568Z,23.94
2018-08-19T19:25:11.545Z,23.89
2018-08-19T19:26:11.554Z,23.90
2018-08-19T19:27:11.559Z,23.89
2018-08-19T19:28:11.629Z,23.90
2018-08-19T19:29:11.573Z,23.86
2018-08-19T19:30:11.575Z,23.80
2018-08-19T19:31:11.589Z,23.83
2018-08-19T19:32:11.586Z,23.90
2018-08-19T19:33:11.601Z,23.79
2018-08-19T19:34:11.655Z,23.80
2018-08-19T19:35:11.609Z,23.80
2018-08-19T19:36:11.610Z,23.75
2018-08-19T19:37:11.626Z,23.85
2018-08-19T19:38:11.626Z,23.72
2018-08-19T19:39:11.632Z,23.75
2018-08-19T19:40:11.642Z,23.72
2018-08-19T19:41:11.644Z,23.68
2018-08-19T19:42:11.649Z,23.64
2018-08-19T19:43:11.660Z,23.65
2018-08-19T19:44:11.662Z,23.65
2018-08-19T19:45:11.674Z,23.61
2018-08-19T19:46:11.674Z,23.57
2018-08-19T19:47:11.691Z,23.57
2018-08-19T19:48:11.694Z,23.58
2018-08-19T19:49:11.694Z,23.52
2018-08-19T19:50:11.705Z,23.49
2018-08-19T19:51:11.705Z,23.55
2018-08-19T19:52:11.729Z,23.52
2018-08-19T19:53:11.718Z,23.55
2018-08-19T19:54:11.734Z,23.50
2018-08-19T19:55:11.730Z,23.50
2018-08-19T19:56:11.856Z,23.52
2018-08-19T19:57:11.800Z,23.52
2018-08-19T19:58:11.747Z,23.58
2018-08-19T19:59:11.758Z,23.55
2018-08-19T20:00:11.782Z,23.53
2018-08-19T20:01:11.767Z,23.52
2018-08-19T20:02:11.779Z,23.57
2018-08-19T20:03:11.778Z,23.55
2018-08-19T20:04:11.785Z,23.61
2018-08-19T20:05:11.797Z,23.55
2018-08-19T20:06:11.799Z,23.60
2018-08-19T20:07:11.810Z,23.55
2018-08-19T20:08:11.809Z,23.58
2018-08-19T20:09:11.820Z,23.55
2018-08-19T20:10:11.823Z,23.53
2018-08-19T20:11:11.832Z,23.53
2018-08-19T20:12:11.833Z,23.53
2018-08-19T20:13:11.839Z,23.55
2018-08-19T20:14:11.850Z,23.53
2018-08-19T20:15:11.852Z,23.53
2018-08-19T20:16:11.856Z,23.52
2018-08-19T20:17:11.868Z,23.58
2018-08-19T20:18:11.871Z,23.55
2018-08-19T20:19:11.876Z,23.57
2018-08-19T20:20:11.888Z,23.53
2018-08-19T20:21:11.887Z,23.50
2018-08-19T20:22:11.894Z,23.52
2018-08-19T20:23:11.902Z,23.55
2018-08-19T20:24:11.906Z,23.49
2018-08-19T20:25:11.918Z,23.52
2018-08-19T20:26:11.944Z,23.52
2018-08-19T20:27:11.923Z,23.53
2018-08-19T20:28:11.948Z,23.50
2018-08-19T20:29:11.938Z,23.57
2018-08-19T20:30:11.941Z,23.60
2018-08-19T20:31:11.956Z,23.58
2018-08-19T20:32:11.960Z,23.53
2018-08-19T20:33:12.027Z,23.47
2018-08-19T20:34:12.015Z,23.46
2018-08-19T20:35:11.977Z,23.52
2018-08-19T20:36:11.978Z,23.52
2018-08-19T20:37:11.991Z,23.50
2018-08-19T20:38:11.996Z,23.60
2018-08-19T20:39:12.005Z,23.57
2018-08-19T20:40:12.007Z,23.55
2018-08-19T20:41:12.012Z,23.57
2018-08-19T20:42:12.020Z,23.53
2018-08-19T20:43:12.036Z,23.55
2018-08-19T20:44:12.036Z,23.53
2018-08-19T20:45:12.039Z,23.50
2018-08-19T20:46:12.048Z,23.57
2018-08-19T20:47:12.059Z,23.53
2018-08-19T20:48:12.052Z,23.58
2018-08-19T20:49:12.074Z,23.61
2018-08-19T20:50:12.184Z,23.57
2018-08-19T20:51:12.081Z,23.53
2018-08-19T20:52:12.084Z,23.55
2018-08-19T20:53:12.086Z,23.52
2018-08-19T20:54:12.101Z,23.47
2018-08-19T20:55:12.097Z,23.52
2018-08-19T20:56:12.112Z,23.55
2018-08-19T20:57:12.114Z,23.53
2018-08-19T20:58:12.121Z,23.57
2018-08-19T20:59:12.122Z,23.52
2018-08-19T21:00:12.128Z,23.52
2018-08-19T21:01:12.141Z,23.55
2018-08-19T21:02:12.140Z,23.46
2018-08-19T21:03:12.146Z,23.49
2018-08-19T21:04:12.159Z,23.43
2018-08-19T21:05:12.261Z,23.45
2018-08-19T21:06:12.172Z,23.34
2018-08-19T21:07:12.174Z,23.47
2018-08-19T21:08:12.174Z,23.39
2018-08-19T21:09:12.189Z,23.45
2018-08-19T21:10:12.188Z,23.46
2018-08-19T21:11:12.201Z,23.43
2018-08-19T21:12:12.205Z,23.40
2018-08-19T21:13:12.209Z,23.32
2018-08-19T21:14:12.213Z,23.40
2018-08-19T21:15:12.225Z,23.42
2018-08-19T21:16:12.231Z,23.38
2018-08-19T21:17:12.237Z,23.40
2018-08-19T21:18:12.246Z,23.29
2018-08-19T21:19:12.247Z,23.39
2018-08-19T21:20:12.249Z,23.29
2018-08-19T21:21:12.262Z,23.26
2018-08-19T21:22:12.264Z,23.31
2018-08-19T21:23:12.274Z,23.29
2018-08-19T21:24:12.278Z,23.38
2018-08-19T21:25:12.280Z,23.32
2018-08-19T21:26:12.293Z,23.31
2018-08-19T21:27:12.293Z,23.31
2018-08-19T21:28:12.301Z,23.26
2018-08-19T21:29:12.311Z,23.27
2018-08-19T21:30:12.397Z,23.35
2018-08-19T21:31:12.326Z,23.20
2018-08-19T21:32:12.322Z,23.27
2018-08-19T21:33:12.331Z,23.29
2018-08-19T21:34:12.341Z,23.23
2018-08-19T21:35:12.340Z,23.22
2018-08-19T21:36:12.347Z,23.23
2018-08-19T21:37:12.359Z,23.19
2018-08-19T21:38:12.374Z,23.22
2018-08-19T21:39:12.365Z,23.24
2018-08-19T21:40:12.377Z,23.24
2018-08-19T21:41:12.376Z,23.31
2018-08-19T21:42:12.382Z,23.20
2018-08-19T21:43:12.391Z,23.22
2018-08-19T21:44:12.396Z,23.22
2018-08-19T21:45:12.404Z,23.20
2018-08-19T21:46:12.406Z,23.15
2018-08-19T21:47:12.412Z,23.19
2018-08-19T21:48:12.419Z,23.31
2018-08-19T21:49:12.426Z,23.29
2018-08-19T21:50:12.428Z,23.32
2018-08-19T21:51:12.441Z,23.31
2018-08-19T21:52:12.449Z,23.27
2018-08-19T21:53:12.452Z,23.24
2018-08-19T21:54:12.458Z,23.32
2018-08-19T21:55:13.039Z,23.31
2018-08-19T21:56:12.465Z,23.23
2018-08-19T21:57:12.479Z,23.31
2018-08-19T21:58:12.485Z,23.22
2018-08-19T21:59:12.490Z,23.22
2018-08-19T22:00:12.493Z,23.20
2018-08-19T22:01:12.497Z,23.20
2018-08-19T22:02:12.504Z,23.17
2018-08-19T22:03:12.514Z,23.14
2018-08-19T22:04:12.514Z,23.11
2018-08-19T22:05:12.524Z,23.11
2018-08-19T22:06:12.531Z,23.15
2018-08-19T22:07:12.551Z,23.15
2018-08-19T22:08:12.538Z,23.14
2018-08-19T22:09:12.550Z,23.17
2018-08-19T22:10:12.557Z,23.05
2018-08-19T22:11:12.560Z,23.12
2018-08-19T22:12:12.576Z,23.12
2018-08-19T22:13:12.567Z,23.17
2018-08-19T22:14:12.573Z,23.08
2018-08-19T22:15:12.584Z,23.08
2018-08-19T22:16:12.587Z,23.01
2018-08-19T22:17:12.595Z,23.09
2018-08-19T22:18:12.602Z,23.09
2018-08-19T22:19:12.634Z,23.04
2018-08-19T22:20:12.614Z,23.05
2018-08-19T22:21:12.615Z,23.05
2018-08-19T22:22:12.620Z,23.02
2018-08-19T22:23:12.632Z,23.02
2018-08-19T22:24:12.634Z,23.05
2018-08-19T22:25:12.643Z,23.05
2018-08-19T22:26:12.644Z,22.94
2018-08-19T22:27:12.654Z,23.02
2018-08-19T22:28:12.661Z,23.02
2018-08-19T22:29:12.663Z,23.04
2018-08-19T22:30:12.672Z,23.02
2018-08-19T22:31:12.675Z,22.96
2018-08-19T22:32:12.683Z,22.96
2018-08-19T22:33:12.692Z,22.99
2018-08-19T22:34:12.691Z,23.01
2018-08-19T22:35:12.699Z,23.04
2018-08-19T22:36:12.704Z,22.99
2018-08-19T22:37:12.708Z,23.04
2018-08-19T22:38:12.722Z,23.04
2018-08-19T22:39:12.725Z,23.04
2018-08-19T22:40:12.787Z,23.09
2018-08-19T22:41:12.740Z,23.05
2018-08-19T22:42:12.743Z,23.08
2018-08-19T22:43:12.744Z,23.01
2018-08-19T22:44:12.756Z,23.04
2018-08-19T22:45:12.757Z,23.02
2018-08-19T22:46:12.765Z,23.11
2018-08-19T22:47:12.784Z,23.05
2018-08-19T22:48:12.780Z,23.09
2018-08-19T22:49:12.781Z,23.01
2018-08-19T22:50:12.791Z,23.02
2018-08-19T22:51:12.795Z,23.05
2018-08-19T22:52:12.801Z,23.02
2018-08-19T22:53:12.811Z,23.08
2018-08-19T22:54:12.811Z,23.02
2018-08-19T22:55:12.815Z,23.02
2018-08-19T22:56:12.826Z,23.04
2018-08-19T22:57:12.839Z,23.09
2018-08-19T22:58:12.831Z,23.04
2018-08-19T22:59:12.842Z,23.02
2018-08-19T23:00:12.848Z,23.05
2018-08-19T23:01:12.857Z,22.97
2018-08-19T23:02:12.859Z,23.01
2018-08-19T23:03:12.863Z,22.97
2018-08-19T23:04:12.870Z,23.04
2018-08-19T23:05:12.882Z,22.96
2018-08-19T23:06:12.890Z,23.02
2018-08-19T23:07:12.892Z,23.02
2018-08-19T23:08:12.896Z,23.02
2018-08-19T23:09:12.893Z,23.02
2018-08-19T23:10:12.909Z,23.04
2018-08-19T23:11:12.909Z,23.01
2018-08-19T23:12:12.915Z,22.99
2018-08-19T23:13:12.926Z,23.02
2018-08-19T23:14:12.927Z,22.99
2018-08-19T23:15:12.932Z,23.02
2018-08-19T23:16:12.947Z,22.99
2018-08-19T23:17:12.943Z,22.97
2018-08-19T23:18:12.951Z,23.01
2018-08-19T23:19:12.960Z,22.96
2018-08-19T23:20:12.967Z,23.01
2018-08-19T23:21:12.966Z,22.99
2018-08-19T23:22:12.976Z,23.04
2018-08-19T23:23:12.984Z,22.99
2018-08-19T23:24:12.983Z,23.08
2018-08-19T23:25:12.998Z,22.99
2018-08-19T23:26:13.001Z,22.99
2018-08-19T23:27:13.001Z,22.99
2018-08-19T23:28:13.011Z,22.99
2018-08-19T23:29:13.024Z,23.02
2018-08-19T23:30:13.025Z,23.01
2018-08-19T23:31:13.028Z,22.99
2018-08-19T23:32:13.036Z,22.99
2018-08-19T23:33:13.038Z,22.97
2018-08-19T23:34:13.044Z,22.94
2018-08-19T23:35:13.049Z,23.02
2018-08-19T23:36:13.055Z,22.97
2018-08-19T23:37:13.070Z,22.90
2018-08-19T23:38:13.068Z,23.02
2018-08-19T23:39:13.077Z,23.04
2018-08-19T23:40:13.077Z,22.96
2018-08-19T23:41:13.082Z,22.97
2018-08-19T23:42:13.095Z,22.96
2018-08-19T23:43:13.092Z,22.86
2018-08-19T23:44:13.103Z,22.87
2018-08-19T23:45:13.108Z,22.89
2018-08-19T23:46:13.118Z,22.90
2018-08-19T23:47:13.117Z,22.87
2018-08-19T23:48:13.124Z,22.92
2018-08-19T23:49:13.132Z,22.86
2018-08-19T23:50:13.138Z,22.83
2018-08-19T23:51:13.146Z,22.74
2018-08-19T23:52:13.153Z,22.77
2018-08-19T23:53:13.151Z,22.78
2018-08-19T23:54:13.158Z,22.84
2018-08-19T23:55:13.166Z,22.72
2018-08-19T23:56:13.174Z,22.78
2018-08-19T23:57:13.187Z,22.77
2018-08-19T23:58:13.180Z,22.83
2018-08-19T23:59:13.193Z,22.80
